createdAt,value
2022-11-14T00:00:55.976Z,47.86
2022-11-14T00:01:55.965Z,47.70
2022-11-14T00:02:56.006Z,46.41
2022-11-14T00:03:55.936Z,45.92
2022-11-14T00:04:55.944Z,46.41
2022-11-14T00:05:55.929Z,53.50
2022-11-14T00:06:55.963Z,53.82
2022-11-14T00:07:55.898Z,44.31
2022-11-14T00:08:55.899Z,45.12
2022-11-14T00:09:55.894Z,48.18
2022-11-14T00:10:55.865Z,48.02
2022-11-14T00:11:55.858Z,44.63
2022-11-14T00:12:55.842Z,43.83
2022-11-14T00:13:55.848Z,43.83
2022-11-14T00:14:55.855Z,46.89
2022-11-14T00:15:55.805Z,49.47
2022-11-14T00:16:55.838Z,44.63
2022-11-14T00:17:55.811Z,48.34
2022-11-14T00:18:55.792Z,46.73
2022-11-14T00:19:55.774Z,49.79
2022-11-14T00:20:55.770Z,61.07
2022-11-14T00:21:55.788Z,44.63
2022-11-14T00:22:55.759Z,46.89
2022-11-14T00:23:55.724Z,44.79
2022-11-14T00:24:55.746Z,46.41
2022-11-14T00:25:55.760Z,44.47
2022-11-14T00:26:55.691Z,48.66
2022-11-14T00:27:55.742Z,53.01
2022-11-14T00:28:55.685Z,48.82
2022-11-14T00:29:55.700Z,55.11
2022-11-14T00:30:55.701Z,53.66
2022-11-14T00:31:55.665Z,50.43
2022-11-14T00:32:55.667Z,54.46
2022-11-14T00:33:55.628Z,55.59
2022-11-14T00:34:55.650Z,51.24
2022-11-14T00:35:55.653Z,52.37
2022-11-14T00:36:55.634Z,51.40
2022-11-14T00:37:55.596Z,48.18
2022-11-14T00:38:55.651Z,53.50
2022-11-14T00:39:55.568Z,47.21
2022-11-14T00:40:55.555Z,54.62
2022-11-14T00:41:55.556Z,52.37
2022-11-14T00:42:55.591Z,50.27
2022-11-14T00:43:55.539Z,44.79
2022-11-14T00:44:55.582Z,49.63
2022-11-14T00:45:55.525Z,49.15
2022-11-14T00:46:55.505Z,45.76
2022-11-14T00:47:55.509Z,47.53
2022-11-14T00:48:55.479Z,46.57
2022-11-14T00:49:55.523Z,45.60
2022-11-14T00:50:55.498Z,48.98
2022-11-14T00:51:55.457Z,55.59
2022-11-14T00:52:55.430Z,55.11
2022-11-14T00:53:55.446Z,45.76
2022-11-14T00:54:55.424Z,49.63
2022-11-14T00:55:55.428Z,46.57
2022-11-14T00:56:55.396Z,50.11
2022-11-14T00:57:55.396Z,46.73
2022-11-14T00:58:55.398Z,48.34
2022-11-14T00:59:55.410Z,48.02
2022-11-14T01:00:55.404Z,55.11
2022-11-14T01:01:57.822Z,47.37
2022-11-14T01:02:55.336Z,44.96
2022-11-14T01:03:55.357Z,47.70
2022-11-14T01:04:55.349Z,45.44
2022-11-14T01:05:55.355Z,48.02
2022-11-14T01:06:55.326Z,44.96
2022-11-14T01:07:55.284Z,45.28
2022-11-14T01:08:55.304Z,49.15
2022-11-14T01:09:55.275Z,45.28
2022-11-14T01:10:55.277Z,45.76
2022-11-14T01:11:55.287Z,46.89
2022-11-14T01:12:55.237Z,52.37
2022-11-14T01:13:55.272Z,44.79
2022-11-14T01:14:55.226Z,46.25
2022-11-14T01:15:55.240Z,46.57
2022-11-14T01:16:55.234Z,45.28
2022-11-14T01:17:55.199Z,49.15
2022-11-14T01:18:55.193Z,48.50
2022-11-14T01:19:55.178Z,45.44
2022-11-14T01:20:55.162Z,47.86
2022-11-14T01:21:55.181Z,47.70
2022-11-14T01:22:55.135Z,47.05
2022-11-14T01:23:55.128Z,45.12
2022-11-14T01:24:55.174Z,46.08
2022-11-14T01:25:55.122Z,44.47
2022-11-14T01:26:55.091Z,44.15
2022-11-14T01:27:55.099Z,44.96
2022-11-14T01:28:55.086Z,45.44
2022-11-14T01:29:55.096Z,46.25
2022-11-14T01:30:55.101Z,48.02
2022-11-14T01:31:55.052Z,45.76
2022-11-14T01:32:55.051Z,45.12
2022-11-14T01:33:55.051Z,49.31
2022-11-14T01:34:55.059Z,45.76
2022-11-14T01:35:55.016Z,48.02
2022-11-14T01:36:55.002Z,48.82
2022-11-14T01:37:55.008Z,45.28
2022-11-14T01:38:55.023Z,44.47
2022-11-14T01:39:54.994Z,43.99
2022-11-14T01:40:54.977Z,45.92
2022-11-14T01:41:54.950Z,48.98
2022-11-14T01:42:54.975Z,44.31
2022-11-14T01:43:54.970Z,44.79
2022-11-14T01:44:54.925Z,44.15
2022-11-14T01:45:54.951Z,44.15
2022-11-14T01:46:54.898Z,49.47
2022-11-14T01:47:54.896Z,45.12
2022-11-14T01:48:54.911Z,48.98
2022-11-14T01:49:54.916Z,50.27
2022-11-14T01:50:54.863Z,45.44
2022-11-14T01:51:54.847Z,44.31
2022-11-14T01:52:54.837Z,53.66
2022-11-14T01:53:54.863Z,43.83
2022-11-14T01:54:54.854Z,44.15
2022-11-14T01:55:54.818Z,44.63
2022-11-14T01:56:54.812Z,47.37
2022-11-14T01:57:54.798Z,45.44
2022-11-14T01:58:54.792Z,47.53
2022-11-14T01:59:54.815Z,48.50
2022-11-14T02:00:54.791Z,47.05
2022-11-14T02:01:54.841Z,55.59
2022-11-14T02:02:54.735Z,45.12
2022-11-14T02:03:54.771Z,45.28
2022-11-14T02:04:54.742Z,49.31
2022-11-14T02:05:54.754Z,58.81
2022-11-14T02:06:54.774Z,51.08
2022-11-14T02:07:54.694Z,45.12
2022-11-14T02:08:54.688Z,44.47
2022-11-14T02:09:54.678Z,43.83
2022-11-14T02:10:54.661Z,44.47
2022-11-14T02:11:54.654Z,44.63
2022-11-14T02:12:54.652Z,44.47
2022-11-14T02:13:54.646Z,45.28
2022-11-14T02:14:54.631Z,45.92
2022-11-14T02:15:54.617Z,44.96
2022-11-14T02:17:14.693Z,43.34
2022-11-14T02:17:54.617Z,43.18
2022-11-14T02:18:54.600Z,50.60
2022-11-14T02:19:54.590Z,52.53
2022-11-14T02:20:54.590Z,43.83
2022-11-14T02:21:54.559Z,44.63
2022-11-14T02:22:54.541Z,43.67
2022-11-14T02:23:54.589Z,43.67
2022-11-14T02:24:54.542Z,43.02
2022-11-14T02:25:54.555Z,43.99
2022-11-14T02:26:54.503Z,43.83
2022-11-14T02:27:54.494Z,45.12
2022-11-14T02:28:54.526Z,45.92
2022-11-14T02:29:54.473Z,44.15
2022-11-14T02:30:54.466Z,46.41
2022-11-14T02:31:54.474Z,51.88
2022-11-14T02:33:10.501Z,43.99
2022-11-14T02:33:54.474Z,45.28
2022-11-14T02:34:54.446Z,43.67
2022-11-14T02:35:54.426Z,45.12
2022-11-14T02:36:54.405Z,44.47
2022-11-14T02:37:54.412Z,44.79
2022-11-14T02:38:54.416Z,45.28
2022-11-14T02:39:54.404Z,44.47
2022-11-14T02:40:54.365Z,44.47
2022-11-14T02:41:54.356Z,45.92
2022-11-14T02:42:54.392Z,43.51
2022-11-14T02:43:54.401Z,61.23
2022-11-14T02:44:54.339Z,44.47
2022-11-14T02:45:54.316Z,44.47
2022-11-14T02:46:54.302Z,45.12
2022-11-14T02:47:54.324Z,43.67
2022-11-14T02:48:54.288Z,44.31
2022-11-14T02:49:54.312Z,45.76
2022-11-14T02:50:54.287Z,47.21
2022-11-14T02:51:54.280Z,44.63
2022-11-14T02:52:54.278Z,43.18
2022-11-14T02:53:54.240Z,43.83
2022-11-14T02:54:54.715Z,44.79
2022-11-14T02:55:54.217Z,48.82
2022-11-14T02:56:54.232Z,46.73
2022-11-14T02:57:54.211Z,43.83
2022-11-14T02:58:54.187Z,44.15
2022-11-14T02:59:54.176Z,44.47
2022-11-14T03:01:19.237Z,52.69
2022-11-14T03:01:54.231Z,46.73
2022-11-14T03:02:54.154Z,46.41
2022-11-14T03:03:54.156Z,55.59
2022-11-14T03:04:54.161Z,46.25
2022-11-14T03:05:54.154Z,46.89
2022-11-14T03:06:54.174Z,45.60
2022-11-14T03:07:54.120Z,45.76
2022-11-14T03:08:54.091Z,46.25
2022-11-14T03:09:54.109Z,52.37
2022-11-14T03:10:54.096Z,53.17
2022-11-14T03:11:54.066Z,48.50
2022-11-14T03:12:54.082Z,44.79
2022-11-14T03:13:54.081Z,49.79
2022-11-14T03:14:54.052Z,43.99
2022-11-14T03:15:54.019Z,50.92
2022-11-14T03:16:54.020Z,70.42
2022-11-14T03:17:54.030Z,45.44
2022-11-14T03:18:54.013Z,44.79
2022-11-14T03:19:53.982Z,49.79
2022-11-14T03:20:53.964Z,54.14
2022-11-14T03:21:53.994Z,45.44
2022-11-14T03:22:53.951Z,51.40
2022-11-14T03:23:53.947Z,45.12
2022-11-14T03:24:53.929Z,59.30
2022-11-14T03:25:53.924Z,53.50
2022-11-14T03:26:53.952Z,45.60
2022-11-14T03:27:53.903Z,48.98
2022-11-14T03:28:53.911Z,48.50
2022-11-14T03:29:53.916Z,46.57
2022-11-14T03:30:53.905Z,55.91
2022-11-14T03:31:53.924Z,45.60
2022-11-14T03:32:53.846Z,48.50
2022-11-14T03:33:53.846Z,59.30
2022-11-14T03:34:53.847Z,51.88
2022-11-14T03:35:53.836Z,62.84
2022-11-14T03:36:53.825Z,60.91
2022-11-14T03:37:56.391Z,60.10
2022-11-14T03:38:53.793Z,45.12
2022-11-14T03:39:53.786Z,44.31
2022-11-14T03:40:53.788Z,44.96
2022-11-14T03:41:53.758Z,49.79
2022-11-14T03:42:53.774Z,48.18
2022-11-14T03:43:53.738Z,52.21
2022-11-14T03:44:53.755Z,45.28
2022-11-14T03:45:53.735Z,45.44
2022-11-14T03:46:53.718Z,50.11
2022-11-14T03:47:53.700Z,48.18
2022-11-14T03:48:53.698Z,58.97
2022-11-14T03:49:53.699Z,51.08
2022-11-14T03:50:53.688Z,45.28
2022-11-14T03:51:53.693Z,46.57
2022-11-14T03:52:53.655Z,53.82
2022-11-14T03:53:53.658Z,46.89
2022-11-14T03:54:53.663Z,46.73
2022-11-14T03:55:53.686Z,60.75
2022-11-14T03:56:53.621Z,58.65
2022-11-14T03:57:53.608Z,49.63
2022-11-14T03:58:53.597Z,51.24
2022-11-14T03:59:53.608Z,49.95
2022-11-14T04:00:53.637Z,58.49
2022-11-14T04:01:53.579Z,53.33
2022-11-14T04:02:53.550Z,54.30
2022-11-14T04:03:53.550Z,49.15
2022-11-14T04:04:53.566Z,49.79
2022-11-14T04:05:53.528Z,52.53
2022-11-14T04:06:53.619Z,73.96
2022-11-14T04:07:53.511Z,48.50
2022-11-14T04:08:53.511Z,60.26
2022-11-14T04:09:53.480Z,52.21
2022-11-14T04:10:53.527Z,48.34
2022-11-14T04:11:53.467Z,56.40
2022-11-14T04:12:53.458Z,52.53
2022-11-14T04:13:53.461Z,54.30
2022-11-14T04:14:53.497Z,47.86
2022-11-14T04:15:53.429Z,53.17
2022-11-14T04:16:53.440Z,54.62
2022-11-14T04:17:53.405Z,54.46
2022-11-14T04:18:53.402Z,48.34
2022-11-14T04:19:53.399Z,51.40
2022-11-14T04:20:53.387Z,48.98
2022-11-14T04:21:53.423Z,48.82
2022-11-14T04:22:53.361Z,64.61
2022-11-14T04:23:53.349Z,59.30
2022-11-14T04:24:53.336Z,50.92
2022-11-14T04:25:53.329Z,59.78
2022-11-14T04:26:53.321Z,54.95
2022-11-14T04:27:53.286Z,74.77
2022-11-14T04:28:53.304Z,63.16
2022-11-14T04:29:53.235Z,82.82
2022-11-14T04:30:53.277Z,75.89
2022-11-14T04:31:53.270Z,71.54
2022-11-14T04:32:53.288Z,60.26
2022-11-14T04:33:53.281Z,64.78
2022-11-14T04:34:53.244Z,51.56
2022-11-14T04:35:53.234Z,53.01
2022-11-14T04:36:53.234Z,49.79
2022-11-14T04:37:53.226Z,55.59
2022-11-14T04:38:53.234Z,65.74
2022-11-14T04:39:53.195Z,63.33
2022-11-14T04:40:53.192Z,59.46
2022-11-14T04:41:53.196Z,60.26
2022-11-14T04:42:53.177Z,52.21
2022-11-14T04:43:53.173Z,48.02
2022-11-14T04:44:53.233Z,59.30
2022-11-14T04:45:53.124Z,57.20
2022-11-14T04:46:53.132Z,69.29
2022-11-14T04:47:53.119Z,57.36
2022-11-14T04:48:53.114Z,53.98
2022-11-14T04:49:53.116Z,60.26
2022-11-14T04:50:53.105Z,61.39
2022-11-14T04:51:53.096Z,58.97
2022-11-14T04:52:53.075Z,55.75
2022-11-14T04:53:53.049Z,61.71
2022-11-14T04:54:53.047Z,58.97
2022-11-14T04:55:53.079Z,57.69
2022-11-14T04:56:53.064Z,66.71
2022-11-14T04:57:53.030Z,53.66
2022-11-14T04:58:53.015Z,54.62
2022-11-14T04:59:52.994Z,58.33
2022-11-14T05:00:52.990Z,52.69
2022-11-14T05:01:53.075Z,61.23
2022-11-14T05:02:52.969Z,56.07
2022-11-14T05:03:52.961Z,57.52
2022-11-14T05:04:52.967Z,64.61
2022-11-14T05:05:52.937Z,54.14
2022-11-14T05:06:52.977Z,57.36
2022-11-14T05:07:52.936Z,52.37
2022-11-14T05:08:52.953Z,55.91
2022-11-14T05:09:52.902Z,60.91
2022-11-14T05:10:52.823Z,72.35
2022-11-14T05:11:52.863Z,70.09
2022-11-14T05:12:52.878Z,67.84
2022-11-14T05:13:52.863Z,55.43
2022-11-14T05:14:52.874Z,58.81
2022-11-14T05:15:52.837Z,60.10
2022-11-14T05:16:52.839Z,58.97
2022-11-14T05:17:52.832Z,57.69
2022-11-14T05:18:52.830Z,66.23
2022-11-14T05:19:52.805Z,55.27
2022-11-14T05:20:52.724Z,64.61
2022-11-14T05:21:52.784Z,71.38
2022-11-14T05:22:52.788Z,70.74
2022-11-14T05:23:52.755Z,68.48
2022-11-14T05:24:52.744Z,56.40
2022-11-14T05:25:58.554Z,66.71
2022-11-14T05:26:52.731Z,63.16
2022-11-14T05:27:52.730Z,66.39
2022-11-14T05:28:52.733Z,68.80
2022-11-14T05:29:52.689Z,57.20
2022-11-14T05:30:52.731Z,55.59
2022-11-14T05:31:52.669Z,60.91
2022-11-14T05:32:52.691Z,71.22
2022-11-14T05:33:52.726Z,61.55
2022-11-14T05:34:52.603Z,68.80
2022-11-14T05:35:52.668Z,61.39
2022-11-14T05:36:52.606Z,80.73
2022-11-14T05:37:57.375Z,67.19
2022-11-14T05:38:52.613Z,63.49
2022-11-14T05:39:52.602Z,64.45
2022-11-14T05:40:52.605Z,63.49
2022-11-14T05:41:52.573Z,63.97
2022-11-14T05:42:52.634Z,63.00
2022-11-14T05:43:52.554Z,74.28
2022-11-14T05:44:52.527Z,64.61
2022-11-14T05:45:52.570Z,61.07
2022-11-14T05:46:52.515Z,71.06
2022-11-14T05:47:52.510Z,63.81
2022-11-14T05:48:52.515Z,63.97
2022-11-14T05:49:52.496Z,67.03
2022-11-14T05:50:52.507Z,64.78
2022-11-14T05:51:52.520Z,69.61
2022-11-14T05:52:52.467Z,65.90
2022-11-14T05:53:52.502Z,59.30
2022-11-14T05:54:52.449Z,64.78
2022-11-14T05:55:52.492Z,59.94
2022-11-14T05:56:52.441Z,64.61
2022-11-14T05:57:52.414Z,63.81
2022-11-14T05:58:52.417Z,60.26
2022-11-14T05:59:52.418Z,61.87
2022-11-14T06:00:54.453Z,63.97
2022-11-14T06:01:52.425Z,61.39
2022-11-14T06:02:52.382Z,64.13
2022-11-14T06:03:52.357Z,60.42
2022-11-14T06:04:52.365Z,63.65
2022-11-14T06:05:52.324Z,71.22
2022-11-14T06:06:52.351Z,60.42
2022-11-14T06:07:52.329Z,63.81
2022-11-14T06:08:52.328Z,68.16
2022-11-14T06:09:52.299Z,63.00
2022-11-14T06:10:52.309Z,65.10
2022-11-14T06:11:52.266Z,67.51
2022-11-14T06:12:52.240Z,62.04
2022-11-14T06:13:52.218Z,61.71
2022-11-14T06:14:52.259Z,66.71
2022-11-14T06:15:52.237Z,60.10
2022-11-14T06:16:52.229Z,62.68
2022-11-14T06:17:52.218Z,61.71
2022-11-14T06:18:52.183Z,60.10
2022-11-14T06:19:52.218Z,63.33
2022-11-14T06:20:52.202Z,59.62
2022-11-14T06:21:52.137Z,55.11
2022-11-14T06:22:52.150Z,66.55
2022-11-14T06:23:52.179Z,53.66
2022-11-14T06:24:52.153Z,65.74
2022-11-14T06:25:52.102Z,58.33
2022-11-14T06:26:52.075Z,64.13
2022-11-14T06:27:52.094Z,60.26
2022-11-14T06:28:52.080Z,60.42
2022-11-14T06:29:52.079Z,62.52
2022-11-14T06:30:52.051Z,57.85
2022-11-14T06:31:52.054Z,60.26
2022-11-14T06:32:52.015Z,65.42
2022-11-14T06:33:52.019Z,65.58
2022-11-14T06:34:52.036Z,66.23
2022-11-14T06:35:52.016Z,60.59
2022-11-14T06:36:51.990Z,73.80
2022-11-14T06:37:52.007Z,63.65
2022-11-14T06:38:51.972Z,69.29
2022-11-14T06:39:51.953Z,71.38
2022-11-14T06:40:52.056Z,67.03
2022-11-14T06:41:51.925Z,63.65
2022-11-14T06:42:51.961Z,64.13
2022-11-14T06:43:51.953Z,78.15
2022-11-14T06:44:51.911Z,66.87
2022-11-14T06:45:51.917Z,70.74
2022-11-14T06:46:51.891Z,62.68
2022-11-14T06:47:51.903Z,64.45
2022-11-14T06:48:51.884Z,73.15
2022-11-14T06:49:51.907Z,64.78
2022-11-14T06:50:51.840Z,62.36
2022-11-14T06:51:51.876Z,67.35
2022-11-14T06:52:51.842Z,71.70
2022-11-14T06:53:51.837Z,77.18
2022-11-14T06:54:51.842Z,67.68
2022-11-14T06:55:51.791Z,63.97
2022-11-14T06:56:51.795Z,71.54
2022-11-14T06:57:51.778Z,65.10
2022-11-14T06:58:51.793Z,62.36
2022-11-14T06:59:51.798Z,61.23
2022-11-14T07:00:51.793Z,71.22
2022-11-14T07:01:52.030Z,62.68
2022-11-14T07:02:51.812Z,67.68
2022-11-14T07:03:51.814Z,62.36
2022-11-14T07:04:51.705Z,64.13
2022-11-14T07:05:51.727Z,66.06
2022-11-14T07:06:51.756Z,64.61
2022-11-14T07:07:51.673Z,68.16
2022-11-14T07:08:51.711Z,69.29
2022-11-14T07:09:51.659Z,65.42
2022-11-14T07:10:51.658Z,68.96
2022-11-14T07:11:51.648Z,73.80
2022-11-14T07:12:51.637Z,66.39
2022-11-14T07:13:51.634Z,73.80
2022-11-14T07:14:51.697Z,63.33
2022-11-14T07:15:51.623Z,70.25
2022-11-14T07:16:51.588Z,63.16
2022-11-14T07:17:51.592Z,64.78
2022-11-14T07:18:51.711Z,72.99
2022-11-14T07:19:51.597Z,59.94
2022-11-14T07:20:53.369Z,73.96
2022-11-14T07:21:51.651Z,64.13
2022-11-14T07:22:51.599Z,71.06
2022-11-14T07:23:51.547Z,63.65
2022-11-14T07:24:51.536Z,61.55
2022-11-14T07:25:51.529Z,68.80
2022-11-14T07:26:52.767Z,67.68
2022-11-14T07:27:51.526Z,73.48
2022-11-14T07:28:54.428Z,97.16
2022-11-14T07:29:51.904Z,71.70
2022-11-14T07:30:51.477Z,71.38
2022-11-14T07:31:51.453Z,65.90
2022-11-14T07:32:51.457Z,63.33
2022-11-14T07:33:51.475Z,70.90
2022-11-14T07:34:51.400Z,67.68
2022-11-14T07:35:51.391Z,57.52
2022-11-14T07:36:51.392Z,61.23
2022-11-14T07:37:51.899Z,67.19
2022-11-14T07:38:51.405Z,64.78
2022-11-14T07:39:51.372Z,63.49
2022-11-14T07:40:55.413Z,63.97
2022-11-14T07:41:51.352Z,59.14
2022-11-14T07:42:51.336Z,66.23
2022-11-14T07:43:52.381Z,68.16
2022-11-14T07:44:51.326Z,64.13
2022-11-14T07:45:51.375Z,60.91
2022-11-14T07:46:52.525Z,69.61
2022-11-14T07:47:51.330Z,58.49
2022-11-14T07:48:52.209Z,67.19
2022-11-14T07:49:51.308Z,61.23
2022-11-14T07:50:51.354Z,63.49
2022-11-14T07:51:51.248Z,62.68
2022-11-14T07:52:51.225Z,66.39
2022-11-14T07:53:51.257Z,67.03
2022-11-14T07:54:52.147Z,70.25
2022-11-14T07:55:51.322Z,58.81
2022-11-14T07:56:53.186Z,67.35
2022-11-14T07:57:51.242Z,71.22
2022-11-14T07:58:51.212Z,68.48
2022-11-14T07:59:51.216Z,65.74
2022-11-14T08:00:52.248Z,60.42
2022-11-14T08:01:51.420Z,66.87
2022-11-14T08:02:51.276Z,62.84
2022-11-14T08:03:51.138Z,63.49
2022-11-14T08:04:51.291Z,65.26
2022-11-14T08:05:51.209Z,64.94
2022-11-14T08:06:51.253Z,79.12
2022-11-14T08:07:51.140Z,63.00
2022-11-14T08:08:51.092Z,62.68
2022-11-14T08:09:51.081Z,68.16
2022-11-14T08:10:51.101Z,65.74
2022-11-14T08:11:51.040Z,65.74
2022-11-14T08:13:10.661Z,64.45
2022-11-14T08:13:51.075Z,63.16
2022-11-14T08:14:51.022Z,68.00
2022-11-14T08:15:53.539Z,70.58
2022-11-14T08:16:51.196Z,71.06
2022-11-14T08:17:51.048Z,73.96
2022-11-14T08:18:51.174Z,66.71
2022-11-14T08:19:50.986Z,64.94
2022-11-14T08:20:51.002Z,72.83
2022-11-14T08:21:50.984Z,69.61
2022-11-14T08:22:51.052Z,70.74
2022-11-14T08:23:50.995Z,59.78
2022-11-14T08:24:50.991Z,67.68
2022-11-14T08:25:50.929Z,66.06
2022-11-14T08:26:50.944Z,66.39
2022-11-14T08:27:50.941Z,67.68
2022-11-14T08:28:50.988Z,63.97
2022-11-14T08:29:51.235Z,65.42
2022-11-14T08:30:50.904Z,72.03
2022-11-14T08:31:53.471Z,63.97
2022-11-14T08:32:51.162Z,66.23
2022-11-14T08:33:50.853Z,61.87
2022-11-14T08:34:51.297Z,68.48
2022-11-14T08:35:50.969Z,61.39
2022-11-14T08:36:51.074Z,69.45
2022-11-14T08:37:51.039Z,62.84
2022-11-14T08:38:51.735Z,60.91
2022-11-14T08:39:50.798Z,78.79
2022-11-14T08:40:50.799Z,61.23
2022-11-14T08:41:50.805Z,64.61
2022-11-14T08:42:50.778Z,65.90
2022-11-14T08:43:50.726Z,66.87
2022-11-14T08:44:52.177Z,67.35
2022-11-14T08:45:50.751Z,57.85
2022-11-14T08:46:50.705Z,63.33
2022-11-14T08:47:50.745Z,64.78
2022-11-14T08:48:50.705Z,71.06
2022-11-14T08:49:50.784Z,66.55
2022-11-14T08:50:50.734Z,61.71
2022-11-14T08:51:50.668Z,64.61
2022-11-14T08:52:50.637Z,63.65
2022-11-14T08:53:50.663Z,61.39
2022-11-14T08:54:50.613Z,63.33
2022-11-14T08:55:50.640Z,63.00
2022-11-14T08:56:50.649Z,70.58
2022-11-14T08:57:50.623Z,59.78
2022-11-14T08:58:50.627Z,61.23
2022-11-14T08:59:50.586Z,58.49
2022-11-14T09:00:50.575Z,60.42
2022-11-14T09:01:50.724Z,62.04
2022-11-14T09:02:50.587Z,61.07
2022-11-14T09:03:54.083Z,64.94
2022-11-14T09:04:50.605Z,72.19
2022-11-14T09:05:50.523Z,63.81
2022-11-14T09:06:50.539Z,64.13
2022-11-14T09:07:50.516Z,66.23
2022-11-14T09:08:50.537Z,69.77
2022-11-14T09:09:50.486Z,68.32
2022-11-14T09:10:50.848Z,68.64
2022-11-14T09:11:50.468Z,68.48
2022-11-14T09:12:50.559Z,62.52
2022-11-14T09:13:50.515Z,61.55
2022-11-14T09:14:50.547Z,56.88
2022-11-14T09:15:50.442Z,59.46
2022-11-14T09:16:50.562Z,61.71
2022-11-14T09:17:50.451Z,65.42
2022-11-14T09:18:50.438Z,62.68
2022-11-14T09:19:50.371Z,66.71
2022-11-14T09:20:50.553Z,64.29
2022-11-14T09:21:50.362Z,60.91
2022-11-14T09:22:50.703Z,65.74
2022-11-14T09:23:50.378Z,59.30
2022-11-14T09:24:50.327Z,61.39
2022-11-14T09:25:50.376Z,61.87
2022-11-14T09:26:55.235Z,59.14
2022-11-14T09:27:50.305Z,62.04
2022-11-14T09:28:50.296Z,63.65
2022-11-14T09:29:50.360Z,60.10
2022-11-14T09:30:50.333Z,64.45
2022-11-14T09:31:50.267Z,67.03
2022-11-14T09:32:50.233Z,61.71
2022-11-14T09:33:51.331Z,68.00
2022-11-14T09:34:50.256Z,72.67
2022-11-14T09:35:50.282Z,72.19
2022-11-14T09:36:50.240Z,73.32
2022-11-14T09:37:50.217Z,76.22
2022-11-14T09:38:50.270Z,73.15
2022-11-14T09:39:50.216Z,60.42
2022-11-14T09:40:50.225Z,67.51
2022-11-14T09:41:50.221Z,56.56
2022-11-14T09:42:50.226Z,63.33
2022-11-14T09:43:50.177Z,60.91
2022-11-14T09:44:50.176Z,59.78
2022-11-14T09:45:50.128Z,68.80
2022-11-14T09:46:50.109Z,61.71
2022-11-14T09:47:50.159Z,62.52
2022-11-14T09:48:50.072Z,62.52
2022-11-14T09:49:50.081Z,62.84
2022-11-14T09:50:50.099Z,59.94
2022-11-14T09:51:50.047Z,68.64
2022-11-14T09:52:50.071Z,63.97
2022-11-14T09:53:50.062Z,58.65
2022-11-14T09:54:50.028Z,59.94
2022-11-14T09:55:50.015Z,65.26
2022-11-14T09:56:50.040Z,63.33
2022-11-14T09:57:50.162Z,73.64
2022-11-14T09:58:50.035Z,69.45
2022-11-14T09:59:49.983Z,62.52
2022-11-14T10:00:49.958Z,63.16
2022-11-14T10:01:50.023Z,68.32
2022-11-14T10:02:49.944Z,66.39
2022-11-14T10:03:49.998Z,68.96
2022-11-14T10:04:49.970Z,60.10
2022-11-14T10:05:49.947Z,60.75
2022-11-14T10:06:50.035Z,66.71
2022-11-14T10:07:49.926Z,60.75
2022-11-14T10:08:49.987Z,61.87
2022-11-14T10:09:49.949Z,61.55
2022-11-14T10:10:50.625Z,65.42
2022-11-14T10:11:49.944Z,59.30
2022-11-14T10:12:49.888Z,66.39
2022-11-14T10:13:49.978Z,59.78
2022-11-14T10:14:49.882Z,60.75
2022-11-14T10:15:49.865Z,60.75
2022-11-14T10:16:49.897Z,65.58
2022-11-14T10:17:49.811Z,65.74
2022-11-14T10:18:49.817Z,63.16
2022-11-14T10:19:49.783Z,63.49
2022-11-14T10:20:50.095Z,61.23
2022-11-14T10:21:49.799Z,67.84
2022-11-14T10:22:49.788Z,60.26
2022-11-14T10:23:49.755Z,61.23
2022-11-14T10:24:49.793Z,63.00
2022-11-14T10:25:49.715Z,62.68
2022-11-14T10:26:49.708Z,57.36
2022-11-14T10:27:55.333Z,68.64
2022-11-14T10:28:49.713Z,60.42
2022-11-14T10:29:49.712Z,60.42
2022-11-14T10:30:49.734Z,61.39
2022-11-14T10:31:49.726Z,66.23
2022-11-14T10:32:49.707Z,61.23
2022-11-14T10:33:49.656Z,58.97
2022-11-14T10:34:49.644Z,71.87
2022-11-14T10:35:49.694Z,64.78
2022-11-14T10:36:49.642Z,79.76
2022-11-14T10:37:49.625Z,77.50
2022-11-14T10:38:49.741Z,74.93
2022-11-14T10:39:49.618Z,65.74
2022-11-14T10:40:49.710Z,75.73
2022-11-14T10:41:57.791Z,75.41
2022-11-14T10:42:49.611Z,76.38
2022-11-14T10:43:49.703Z,75.73
2022-11-14T10:44:49.540Z,73.96
2022-11-14T10:45:49.525Z,61.07
2022-11-14T10:46:49.549Z,61.71
2022-11-14T10:47:49.507Z,68.48
2022-11-14T10:48:49.529Z,64.45
2022-11-14T10:49:49.523Z,61.71
2022-11-14T10:50:49.486Z,60.91
2022-11-14T10:51:49.506Z,70.25
2022-11-14T10:52:49.483Z,72.83
2022-11-14T10:53:49.509Z,59.14
2022-11-14T10:54:49.469Z,65.10
2022-11-14T10:56:03.705Z,65.10
2022-11-14T10:56:49.434Z,71.22
2022-11-14T10:57:49.533Z,65.10
2022-11-14T10:58:50.213Z,67.03
2022-11-14T10:59:49.814Z,64.45
2022-11-14T11:00:49.471Z,68.80
2022-11-14T11:01:49.385Z,68.64
2022-11-14T11:02:49.381Z,58.17
2022-11-14T11:03:49.482Z,65.58
2022-11-14T11:04:49.469Z,67.35
2022-11-14T11:05:49.941Z,71.38
2022-11-14T11:06:49.416Z,66.87
2022-11-14T11:07:50.495Z,69.29
2022-11-14T11:08:49.714Z,63.49
2022-11-14T11:09:49.373Z,71.70
2022-11-14T11:10:49.377Z,59.62
2022-11-14T11:11:49.304Z,57.85
2022-11-14T11:12:49.320Z,69.93
2022-11-14T11:13:49.284Z,70.09
2022-11-14T11:14:50.163Z,69.13
2022-11-14T11:15:49.269Z,71.22
2022-11-14T11:16:49.309Z,74.28
2022-11-14T11:17:49.219Z,71.87
2022-11-14T11:18:50.811Z,68.32
2022-11-14T11:19:49.299Z,77.99
2022-11-14T11:20:49.236Z,79.92
2022-11-14T11:21:49.535Z,85.56
2022-11-14T11:22:49.176Z,71.06
2022-11-14T11:23:49.290Z,56.24
2022-11-14T11:24:49.138Z,68.96
2022-11-14T11:25:49.176Z,62.36
2022-11-14T11:26:49.219Z,71.22
2022-11-14T11:27:49.146Z,66.23
2022-11-14T11:28:49.105Z,72.19
2022-11-14T11:29:49.755Z,74.44
2022-11-14T11:30:54.217Z,70.74
2022-11-14T11:31:49.815Z,63.49
2022-11-14T11:32:57.667Z,79.92
2022-11-14T11:33:49.111Z,76.54
2022-11-14T11:34:49.073Z,74.28
2022-11-14T11:35:50.055Z,64.94
2022-11-14T11:36:49.051Z,69.61
2022-11-14T11:37:50.264Z,63.97
2022-11-14T11:38:59.561Z,66.06
2022-11-14T11:39:49.038Z,61.71
2022-11-14T11:40:49.114Z,61.71
2022-11-14T11:43:53.964Z,60.75
2022-11-14T11:44:48.978Z,61.87
2022-11-14T11:45:48.960Z,56.24
2022-11-14T11:46:48.919Z,65.10
2022-11-14T11:47:49.018Z,60.26
2022-11-14T11:48:50.563Z,62.52
2022-11-14T11:49:53.733Z,76.70
2022-11-14T11:50:48.887Z,73.48
2022-11-14T11:51:48.967Z,65.10
2022-11-14T11:52:48.930Z,67.68
2022-11-14T11:53:48.892Z,61.23
2022-11-14T11:54:49.746Z,59.94
2022-11-14T11:55:49.146Z,60.59
2022-11-14T11:56:49.137Z,71.54
2022-11-14T11:57:48.826Z,63.49
2022-11-14T11:58:49.108Z,60.75
2022-11-14T11:59:49.695Z,56.07
2022-11-14T12:00:48.782Z,60.75
2022-11-14T12:01:48.809Z,61.71
2022-11-14T12:02:50.300Z,60.26
2022-11-14T12:03:49.070Z,62.36
2022-11-14T12:04:48.800Z,64.13
2022-11-14T12:05:48.783Z,60.10
2022-11-14T12:06:48.812Z,74.44
2022-11-14T12:07:48.729Z,61.23
2022-11-14T12:08:48.696Z,65.58
2022-11-14T12:10:09.804Z,60.91
2022-11-14T12:10:48.767Z,64.78
2022-11-14T12:11:48.754Z,62.36
2022-11-14T12:12:48.671Z,70.42
2022-11-14T12:13:48.673Z,65.26
2022-11-14T12:14:49.099Z,70.74
2022-11-14T12:15:48.673Z,60.26
2022-11-14T12:16:49.203Z,73.32
2022-11-14T12:17:48.627Z,62.36
2022-11-14T12:18:48.928Z,66.23
2022-11-14T12:19:48.734Z,62.84
2022-11-14T12:20:48.612Z,56.88
2022-11-14T12:21:49.527Z,63.16
2022-11-14T12:22:48.684Z,58.01
2022-11-14T12:23:48.604Z,66.23
2022-11-14T12:24:48.855Z,69.29
2022-11-14T12:25:48.761Z,63.33
2022-11-14T12:26:48.556Z,60.75
2022-11-14T12:27:48.557Z,68.32
2022-11-14T12:28:48.724Z,64.45
2022-11-14T12:29:48.512Z,60.91
2022-11-14T12:30:48.510Z,62.20
2022-11-14T12:31:48.586Z,74.12
2022-11-14T12:32:48.538Z,57.52
2022-11-14T12:33:48.458Z,70.58
2022-11-14T12:34:48.580Z,64.29
2022-11-14T12:35:48.554Z,59.30
2022-11-14T12:36:48.462Z,68.32
2022-11-14T12:37:54.212Z,59.30
2022-11-14T12:38:48.437Z,67.51
2022-11-14T12:39:48.572Z,69.29
2022-11-14T12:40:48.462Z,60.42
2022-11-14T12:41:48.518Z,58.17
2022-11-14T12:42:48.405Z,63.81
2022-11-14T12:43:48.965Z,61.71
2022-11-14T12:44:48.353Z,60.91
2022-11-14T12:45:48.392Z,63.00
2022-11-14T12:46:48.387Z,61.39
2022-11-14T12:47:48.394Z,62.68
2022-11-14T12:48:48.343Z,65.26
2022-11-14T12:49:48.335Z,75.73
2022-11-14T12:50:48.433Z,64.29
2022-11-14T12:51:50.216Z,63.97
2022-11-14T12:52:48.279Z,66.23
2022-11-14T12:53:48.254Z,60.42
2022-11-14T12:54:48.275Z,60.75